Time;durP1;ratioP1;P1;durP2;ratioP2;P2;SDS_P1;SDS_P2;PMS_P1;PMS_P2;Temp;Humidity;BMP_temperature;BMP_pressure;BME280_temperature;BME280_humidity;BME280_pressure;Samples;Min_cycle;Max_cycle;Signal;HPM_P1;HPM_P2
2022/01/09 00:00:03;;;;;;;0.60;0.60;;;;;;;;;;4994424;28;20173;-85
2022/01/09 00:02:29;;;;;;;0.60;0.60;;;;;;;;;;4995272;28;20065;-84
2022/01/09 00:04:54;;;;;;;0.70;0.70;;;;;;;;;;4995411;28;20026;-85
2022/01/09 00:07:19;;;;;;;0.70;0.70;;;;;;;;;;4997117;28;20039;-86
2022/01/09 00:09:45;;;;;;;0.55;0.55;;;;;;;;;;4997126;28;20485;-84
2022/01/09 00:12:11;;;;;;;0.50;0.50;;;;;;;;;;4995506;28;20476;-86
2022/01/09 00:14:36;;;;;;;0.70;0.70;;;;;;;;;;4995149;28;20104;-85
2022/01/09 00:17:02;;;;;;;0.68;0.60;;;;;;;;;;4976657;28;20491;-84
2022/01/09 00:19:28;;;;;;;0.65;0.65;;;;;;;;;;4994013;28;20038;-85
2022/01/09 00:21:54;;;;;;;0.57;0.57;;;;;;;;;;4994819;28;20042;-85
2022/01/09 00:24:19;;;;;;;0.60;0.60;;;;;;;;;;4976365;28;20050;-84
2022/01/09 00:26:44;;;;;;;0.68;0.68;;;;;;;;;;4991363;28;20022;-86
2022/01/09 00:29:10;;;;;;;0.63;0.63;;;;;;;;;;4992910;28;20089;-86
2022/01/09 00:31:36;;;;;;;1.75;0.60;;;;;;;;;;4995480;28;20472;-86
2022/01/09 00:34:02;;;;;;;0.80;0.60;;;;;;;;;;4995587;28;20503;-83
2022/01/09 00:36:27;;;;;;;0.40;0.40;;;;;;;;;;4996113;28;20030;-85
2022/01/09 00:38:58;;;;;;;0.55;0.55;;;;;;;;;;4979536;28;20388;-84
2022/01/09 00:41:23;;;;;;;0.50;0.50;;;;;;;;;;4976322;28;20010;-84
2022/01/09 00:43:50;;;;;;;0.50;0.50;;;;;;;;;;4991002;28;20045;-86
2022/01/09 00:46:15;;;;;;;0.50;0.50;;;;;;;;;;4994636;28;20097;-85
2022/01/09 00:48:41;;;;;;;0.50;0.50;;;;;;;;;;4994766;28;20034;-84
2022/01/09 00:51:06;;;;;;;0.50;0.50;;;;;;;;;;4993675;28;20044;-85
2022/01/09 00:53:31;;;;;;;1.20;0.55;;;;;;;;;;4991875;28;20026;-83
2022/01/09 00:55:57;;;;;;;0.60;0.60;;;;;;;;;;4996562;28;20046;-87
2022/01/09 00:58:22;;;;;;;0.40;0.40;;;;;;;;;;4976187;28;20025;-85
2022/01/09 01:00:48;;;;;;;0.52;0.50;;;;;;;;;;4975314;28;20073;-85
2022/01/09 01:03:13;;;;;;;0.40;0.40;;;;;;;;;;4994461;28;20026;-84
2022/01/09 01:05:38;;;;;;;0.60;0.60;;;;;;;;;;4993515;28;20387;-84
2022/01/09 01:08:04;;;;;;;0.60;0.60;;;;;;;;;;4993182;28;20033;-85
2022/01/09 01:10:29;;;;;;;0.50;0.50;;;;;;;;;;4993715;28;20030;-85
2022/01/09 01:12:55;;;;;;;0.65;0.47;;;;;;;;;;4995507;28;20048;-83
2022/01/09 01:15:20;;;;;;;0.40;0.40;;;;;;;;;;4975473;28;20026;-85
2022/01/09 01:17:46;;;;;;;0.55;0.55;;;;;;;;;;5004064;28;20026;-86
2022/01/09 01:20:12;;;;;;;0.40;0.40;;;;;;;;;;4999081;28;20109;-84
2022/01/09 01:22:38;;;;;;;0.40;0.40;;;;;;;;;;4994818;28;20026;-89
2022/01/09 01:25:05;;;;;;;0.38;0.38;;;;;;;;;;4993286;28;20050;-83
2022/01/09 01:27:30;;;;;;;0.50;0.50;;;;;;;;;;4975024;28;20479;-85
2022/01/09 01:29:56;;;;;;;0.40;0.40;;;;;;;;;;4992703;28;20531;-83
2022/01/09 01:32:22;;;;;;;0.40;0.40;;;;;;;;;;4992931;28;20022;-83
2022/01/09 01:34:48;;;;;;;0.47;0.47;;;;;;;;;;4994380;28;20057;-85
2022/01/09 01:37:13;;;;;;;0.40;0.40;;;;;;;;;;4991613;28;20061;-84
2022/01/09 01:39:38;;;;;;;0.45;0.45;;;;;;;;;;4993345;28;20025;-83
2022/01/09 01:42:04;;;;;;;0.40;0.40;;;;;;;;;;4997281;28;20041;-89
2022/01/09 01:44:44;;;;;;;0.40;0.40;;;;;;;;;;4992479;28;20018;-87
2022/01/09 01:47:10;;;;;;;0.40;0.40;;;;;;;;;;4979357;28;20523;-86
2022/01/09 01:49:35;;;;;;;0.30;0.30;;;;;;;;;;4995205;28;20056;-86
2022/01/09 01:52:01;;;;;;;0.40;0.40;;;;;;;;;;4990681;28;20062;-86
2022/01/09 01:54:27;;;;;;;0.47;0.47;;;;;;;;;;4972131;28;20034;-87
2022/01/09 01:56:53;;;;;;;0.40;0.40;;;;;;;;;;4990844;28;20033;-86
2022/01/09 01:59:18;;;;;;;0.40;0.40;;;;;;;;;;4994481;28;20030;-88
2022/01/09 02:01:44;;;;;;;0.40;0.40;;;;;;;;;;4978626;28;20022;-86
2022/01/09 02:04:09;;;;;;;0.90;0.50;;;;;;;;;;4998395;28;20515;-86
2022/01/09 02:06:35;;;;;;;0.60;0.60;;;;;;;;;;4999431;28;20025;-87
2022/01/09 02:09:04;;;;;;;0.30;0.30;;;;;;;;;;4992078;28;20030;-86
2022/01/09 02:11:30;;;;;;;0.40;0.40;;;;;;;;;;4991522;28;20043;-86
2022/01/09 02:13:56;;;;;;;0.30;0.30;;;;;;;;;;4993182;28;20034;-88
2022/01/09 02:16:22;;;;;;;0.40;0.40;;;;;;;;;;4979788;28;20080;-87
2022/01/09 02:18:48;;;;;;;0.40;0.40;;;;;;;;;;4999315;28;20026;-88
2022/01/09 02:21:14;;;;;;;0.38;0.38;;;;;;;;;;4984098;28;20007;-88
2022/01/09 02:23:45;;;;;;;0.40;0.40;;;;;;;;;;4999273;28;20491;-87
2022/01/09 02:26:11;;;;;;;0.45;0.45;;;;;;;;;;4976163;28;20022;-86
2022/01/09 02:28:37;;;;;;;0.30;0.30;;;;;;;;;;4974780;28;20014;-85
2022/01/09 02:31:02;;;;;;;0.40;0.40;;;;;;;;;;4975120;28;20030;-86
2022/01/09 02:33:28;;;;;;;1.45;0.50;;;;;;;;;;4992950;28;20034;-87
2022/01/09 02:35:54;;;;;;;0.20;0.20;;;;;;;;;;4997988;28;20026;-87
2022/01/09 02:38:20;;;;;;;0.30;0.30;;;;;;;;;;4978744;28;20113;-86
2022/01/09 02:40:51;;;;;;;0.35;0.35;;;;;;;;;;4998817;28;20050;-88
2022/01/09 02:43:17;;;;;;;0.50;0.43;;;;;;;;;;4998204;28;20056;-86
2022/01/09 02:45:45;;;;;;;0.30;0.30;;;;;;;;;;4999825;28;20117;-85
2022/01/09 02:48:11;;;;;;;0.50;0.50;;;;;;;;;;4998055;28;20037;-85
2022/01/09 02:50:41;;;;;;;0.52;0.52;;;;;;;;;;4997708;28;20037;-86
2022/01/09 02:53:15;;;;;;;0.40;0.40;;;;;;;;;;4997823;28;20046;-84
2022/01/09 02:55:41;;;;;;;0.35;0.35;;;;;;;;;;4998499;28;20033;-85
2022/01/09 02:58:06;;;;;;;0.45;0.45;;;;;;;;;;4998618;28;20026;-87
2022/01/09 03:00:39;;;;;;;0.45;0.43;;;;;;;;;;4999225;28;20085;-84
2022/01/09 03:03:04;;;;;;;;;;;;;;;;;;4999360;28;20037;-87
2022/01/09 03:05:30;;;;;;;0.40;0.40;;;;;;;;;;4998519;28;19992;-87
2022/01/09 03:07:56;;;;;;;0.40;0.40;;;;;;;;;;5007534;28;20046;-86
2022/01/09 03:10:22;;;;;;;0.88;0.40;;;;;;;;;;4984099;28;20025;-86
2022/01/09 03:12:50;;;;;;;0.73;0.70;;;;;;;;;;4997520;28;20369;-87
2022/01/09 03:15:17;;;;;;;0.38;0.38;;;;;;;;;;4979987;28;20712;-84
2022/01/09 03:17:43;;;;;;;2.28;0.52;;;;;;;;;;4997758;28;20030;-86
2022/01/09 03:20:11;;;;;;;0.50;0.50;;;;;;;;;;4981199;28;20054;-84
2022/01/09 03:22:37;;;;;;;0.52;0.52;;;;;;;;;;4996663;28;20018;-83
2022/01/09 03:25:03;;;;;;;0.50;0.50;;;;;;;;;;5000971;28;20064;-85
2022/01/09 03:27:28;;;;;;;0.38;0.38;;;;;;;;;;4998229;28;20030;-84
2022/01/09 03:29:54;;;;;;;0.50;0.50;;;;;;;;;;4983560;28;20547;-85
2022/01/09 03:32:19;;;;;;;0.30;0.30;;;;;;;;;;4986766;28;20018;-86
2022/01/09 03:34:44;;;;;;;0.32;0.32;;;;;;;;;;4994114;28;20065;-87
2022/01/09 03:37:10;;;;;;;0.52;0.52;;;;;;;;;;5000607;28;20034;-85
2022/01/09 03:39:35;;;;;;;0.43;0.43;;;;;;;;;;5000858;28;20026;-84
2022/01/09 03:42:01;;;;;;;1.45;0.50;;;;;;;;;;4984804;28;20048;-83
2022/01/09 03:44:27;;;;;;;2.38;0.65;;;;;;;;;;5001466;28;20384;-84
2022/01/09 03:46:53;;;;;;;0.60;0.60;;;;;;;;;;5005282;28;20060;-86
2022/01/09 03:49:19;;;;;;;0.43;0.38;;;;;;;;;;4996933;28;20053;-85
2022/01/09 03:51:47;;;;;;;0.40;0.40;;;;;;;;;;4979767;28;20018;-86
2022/01/09 03:54:13;;;;;;;1.13;0.60;;;;;;;;;;4979772;28;20435;-86
2022/01/09 03:56:38;;;;;;;0.50;0.50;;;;;;;;;;5000847;28;20018;-86
2022/01/09 03:59:03;;;;;;;1.67;1.17;;;;;;;;;;4998820;28;20061;-85
2022/01/09 04:01:29;;;;;;;1.40;0.90;;;;;;;;;;5005389;28;20029;-85
2022/01/09 04:03:54;;;;;;;1.90;1.08;;;;;;;;;;4996303;28;20453;-86
2022/01/09 04:06:20;;;;;;;0.60;0.60;;;;;;;;;;4999643;28;20021;-86
2022/01/09 04:08:47;;;;;;;0.93;0.93;;;;;;;;;;4999490;28;20518;-87
2022/01/09 04:11:18;;;;;;;0.68;0.50;;;;;;;;;;4999277;28;20026;-85
2022/01/09 04:13:43;;;;;;;0.82;0.68;;;;;;;;;;4998955;28;20432;-87
2022/01/09 04:16:08;;;;;;;0.32;0.32;;;;;;;;;;4995567;28;20562;-87
2022/01/09 04:18:34;;;;;;;0.55;0.40;;;;;;;;;;4994120;28;20018;-86
2022/01/09 04:20:59;;;;;;;0.38;0.38;;;;;;;;;;4996090;28;20028;-85
2022/01/09 04:23:25;;;;;;;1.40;0.40;;;;;;;;;;4978825;28;20077;-84
2022/01/09 04:25:51;;;;;;;0.68;0.68;;;;;;;;;;5001904;28;20030;-87
2022/01/09 04:28:17;;;;;;;1.65;0.50;;;;;;;;;;5004787;28;20022;-85
2022/01/09 04:30:43;;;;;;;0.60;0.60;;;;;;;;;;4996036;28;20038;-85
2022/01/09 04:33:10;;;;;;;0.75;0.60;;;;;;;;;;4994791;28;20022;-86
2022/01/09 04:35:36;;;;;;;0.40;0.40;;;;;;;;;;4996576;28;20113;-85
2022/01/09 04:38:02;;;;;;;0.50;0.50;;;;;;;;;;4996751;28;20069;-86
2022/01/09 04:40:27;;;;;;;0.85;0.60;;;;;;;;;;4978926;28;20491;-87
2022/01/09 04:42:56;;;;;;;0.43;0.43;;;;;;;;;;4979005;28;20112;-86
2022/01/09 04:45:24;;;;;;;2.50;0.43;;;;;;;;;;5005680;28;20018;-86
2022/01/09 04:47:51;;;;;;;1.10;0.60;;;;;;;;;;4999832;28;20025;-87
2022/01/09 04:50:27;;;;;;;0.65;0.47;;;;;;;;;;4998743;28;20029;-85
2022/01/09 04:52:59;;;;;;;0.55;0.50;;;;;;;;;;4978792;28;20026;-87
2022/01/09 04:55:25;;;;;;;0.30;0.30;;;;;;;;;;5001264;28;20030;-85
2022/01/09 04:57:51;;;;;;;0.30;0.30;;;;;;;;;;5007276;28;20037;-86
2022/01/09 05:00:17;;;;;;;0.40;0.38;;;;;;;;;;4981721;28;20026;-85
2022/01/09 05:02:42;;;;;;;0.30;0.30;;;;;;;;;;4985998;28;20080;-86
2022/01/09 05:05:09;;;;;;;0.38;0.38;;;;;;;;;;4989632;28;20022;-86
2022/01/09 05:07:35;;;;;;;0.38;0.38;;;;;;;;;;5015907;28;20050;-85
2022/01/09 05:10:02;;;;;;;0.30;0.30;;;;;;;;;;5016047;28;20081;-87
2022/01/09 05:12:28;;;;;;;0.30;0.30;;;;;;;;;;4996017;28;20068;-86
2022/01/09 05:14:53;;;;;;;0.40;0.40;;;;;;;;;;4995730;28;20026;-86
2022/01/09 05:17:18;;;;;;;1.98;0.32;;;;;;;;;;5008780;28;20029;-85
2022/01/09 05:19:46;;;;;;;0.30;0.30;;;;;;;;;;4998715;28;20310;-86
2022/01/09 05:22:12;;;;;;;0.30;0.30;;;;;;;;;;4998595;28;20022;-86
2022/01/09 05:24:37;;;;;;;0.40;0.40;;;;;;;;;;5013060;28;20038;-88
2022/01/09 05:27:03;;;;;;;0.30;0.30;;;;;;;;;;5006332;28;20026;-85
2022/01/09 05:29:28;;;;;;;0.30;0.30;;;;;;;;;;5015443;28;20024;-86
2022/01/09 05:31:53;;;;;;;0.63;0.30;;;;;;;;;;5007405;28;20101;-87
2022/01/09 05:34:19;;;;;;;0.30;0.30;;;;;;;;;;4996005;28;20034;-86
2022/01/09 05:36:44;;;;;;;0.30;0.30;;;;;;;;;;4996790;28;20030;-87
2022/01/09 05:39:09;;;;;;;0.40;0.40;;;;;;;;;;4998293;28;20046;-86
2022/01/09 05:41:36;;;;;;;1.17;0.40;;;;;;;;;;4999485;28;20026;-86
2022/01/09 05:44:02;;;;;;;0.40;0.40;;;;;;;;;;4979684;28;20026;-85
2022/01/09 05:46:27;;;;;;;0.70;0.70;;;;;;;;;;5007522;28;20024;-86
2022/01/09 05:48:53;;;;;;;0.45;0.45;;;;;;;;;;4997737;28;20029;-87
2022/01/09 05:51:18;;;;;;;0.50;0.50;;;;;;;;;;4997622;28;20113;-86
2022/01/09 05:53:44;;;;;;;1.65;0.50;;;;;;;;;;4990928;28;20042;-87
2022/01/09 05:56:09;;;;;;;0.43;0.43;;;;;;;;;;4993077;28;20108;-87
2022/01/09 05:58:35;;;;;;;0.60;0.55;;;;;;;;;;4997160;28;20114;-84
2022/01/09 06:01:03;;;;;;;3.60;0.80;;;;;;;;;;5012834;28;20025;-86
2022/01/09 06:03:28;;;;;;;1.95;1.40;;;;;;;;;;4996239;28;20050;-87
2022/01/09 06:05:54;;;;;;;2.80;0.73;;;;;;;;;;4995783;28;20037;-85
2022/01/09 06:08:19;;;;;;;7.03;0.90;;;;;;;;;;4977479;28;20387;-86
2022/01/09 06:10:45;;;;;;;1.65;0.82;;;;;;;;;;4995080;28;20023;-84
2022/01/09 06:13:10;;;;;;;1.55;0.98;;;;;;;;;;4977846;28;20026;-87
2022/01/09 06:15:35;;;;;;;2.38;1.13;;;;;;;;;;4977287;28;20031;-85
2022/01/09 06:18:01;;;;;;;1.30;0.60;;;;;;;;;;5013163;28;20021;-85
2022/01/09 06:20:26;;;;;;;4.47;1.27;;;;;;;;;;4996505;28;20025;-86
2022/01/09 06:22:52;;;;;;;1.05;0.90;;;;;;;;;;5004250;28;20040;-86
2022/01/09 06:25:17;;;;;;;2.38;0.95;;;;;;;;;;4997930;28;20076;-86
2022/01/09 06:27:43;;;;;;;2.70;0.90;;;;;;;;;;4988578;28;20056;-87
2022/01/09 06:30:09;;;;;;;1.65;0.93;;;;;;;;;;5003868;28;20117;-86
2022/01/09 06:32:35;;;;;;;2.90;0.77;;;;;;;;;;4994216;28;20441;-87
2022/01/09 06:35:01;;;;;;;2.75;0.77;;;;;;;;;;4994519;28;20034;-84
2022/01/09 06:37:27;;;;;;;3.17;1.10;;;;;;;;;;4990460;28;20019;-88
2022/01/09 06:39:52;;;;;;;2.75;0.93;;;;;;;;;;4995424;28;20042;-86
2022/01/09 06:42:17;;;;;;;2.50;0.90;;;;;;;;;;4994435;28;20026;-85
2022/01/09 06:44:43;;;;;;;3.92;1.23;;;;;;;;;;5001790;28;20029;-87
2022/01/09 06:47:08;;;;;;;1.77;0.90;;;;;;;;;;5003425;28;20034;-86
2022/01/09 06:49:34;;;;;;;1.60;0.70;;;;;;;;;;4977294;28;20153;-87
2022/01/09 06:52:00;;;;;;;2.28;0.73;;;;;;;;;;4994622;28;20029;-88
2022/01/09 06:54:25;;;;;;;0.95;0.82;;;;;;;;;;4994678;28;20036;-85
2022/01/09 06:56:51;;;;;;;1.02;0.75;;;;;;;;;;5002990;28;20034;-85
2022/01/09 06:59:16;;;;;;;0.70;0.70;;;;;;;;;;4992523;28;20033;-86
2022/01/09 07:01:42;;;;;;;2.38;1.05;;;;;;;;;;4977478;28;20146;-85
2022/01/09 07:04:07;;;;;;;3.72;0.82;;;;;;;;;;4994523;28;20030;-86
2022/01/09 07:06:34;;;;;;;1.00;1.00;;;;;;;;;;4977127;28;20030;-84
2022/01/09 07:08:59;;;;;;;1.75;0.93;;;;;;;;;;4992626;28;20022;-87
2022/01/09 07:11:25;;;;;;;0.95;0.90;;;;;;;;;;4977376;28;20026;-86
2022/01/09 07:13:50;;;;;;;8.63;1.33;;;;;;;;;;4994248;28;20026;-87
2022/01/09 07:16:16;;;;;;;8.77;1.52;;;;;;;;;;5005865;28;20025;-87
2022/01/09 07:18:41;;;;;;;4.63;1.55;;;;;;;;;;5014585;28;20041;-85
2022/01/09 07:21:06;;;;;;;4.22;1.45;;;;;;;;;;5015721;28;20033;-86
2022/01/09 07:23:32;;;;;;;7.30;1.55;;;;;;;;;;5006847;28;20489;-85
2022/01/09 07:25:57;;;;;;;3.55;1.67;;;;;;;;;;4998624;28;20025;-85
2022/01/09 07:28:23;;;;;;;3.42;1.05;;;;;;;;;;5012166;28;20030;-87
2022/01/09 07:30:48;;;;;;;5.30;1.60;;;;;;;;;;5016274;28;20117;-85
2022/01/09 07:33:14;;;;;;;5.85;1.65;;;;;;;;;;4999155;28;20026;-85
2022/01/09 07:35:39;;;;;;;2.33;1.35;;;;;;;;;;4999004;28;20038;-86
2022/01/09 07:38:04;;;;;;;2.55;1.17;;;;;;;;;;4981326;28;20377;-87
2022/01/09 07:40:30;;;;;;;4.03;1.35;;;;;;;;;;4981676;28;20025;-85
2022/01/09 07:42:55;;;;;;;1.08;1.00;;;;;;;;;;4981236;28;20041;-87
2022/01/09 07:45:24;;;;;;;2.55;1.20;;;;;;;;;;4988423;28;20094;-86
2022/01/09 07:47:50;;;;;;;4.03;1.48;;;;;;;;;;4981195;28;20026;-86
2022/01/09 07:50:16;;;;;;;4.63;1.58;;;;;;;;;;4998583;28;20030;-86
2022/01/09 07:52:41;;;;;;;6.63;1.98;;;;;;;;;;4998879;28;20101;-88
2022/01/09 07:55:08;;;;;;;2.10;1.00;;;;;;;;;;4980851;28;20097;-86
2022/01/09 07:57:35;;;;;;;2.00;0.73;;;;;;;;;;4989400;28;20030;-87
2022/01/09 08:00:03;;;;;;;1.73;1.38;;;;;;;;;;4981393;28;20022;-87
2022/01/09 08:02:29;;;;;;;7.40;2.38;;;;;;;;;;4980772;28;20049;-86
2022/01/09 08:04:54;;;;;;;4.45;1.50;;;;;;;;;;4971709;28;20042;-86
2022/01/09 08:07:20;;;;;;;4.85;1.38;;;;;;;;;;5008010;28;20026;-87
2022/01/09 08:09:46;;;;;;;9.50;2.13;;;;;;;;;;4999713;28;20026;-88
2022/01/09 08:12:14;;;;;;;1.90;1.45;;;;;;;;;;4981019;28;20064;-86
2022/01/09 08:14:41;;;;;;;4.07;1.20;;;;;;;;;;4998452;28;20494;-86
2022/01/09 08:17:06;;;;;;;2.50;1.20;;;;;;;;;;4989482;28;20109;-86
2022/01/09 08:19:31;;;;;;;2.75;1.67;;;;;;;;;;4982031;28;20049;-87
2022/01/09 08:21:58;;;;;;;3.97;1.52;;;;;;;;;;5003538;28;20084;-87
2022/01/09 08:24:24;;;;;;;6.03;1.52;;;;;;;;;;5023796;28;20502;-86
2022/01/09 08:26:49;;;;;;;4.57;1.25;;;;;;;;;;5006540;28;20077;-88
2022/01/09 08:29:15;;;;;;;4.38;1.27;;;;;;;;;;5014927;28;20026;-85
2022/01/09 08:31:41;;;;;;;4.40;1.38;;;;;;;;;;5002884;28;20019;-84
2022/01/09 08:34:06;;;;;;;5.28;1.05;;;;;;;;;;4981045;28;20030;-87
2022/01/09 08:36:32;;;;;;;2.47;1.13;;;;;;;;;;4998512;28;20045;-86
2022/01/09 08:38:57;;;;;;;3.13;1.58;;;;;;;;;;4998469;28;20058;-85
2022/01/09 08:41:23;;;;;;;5.68;1.45;;;;;;;;;;4999084;28;20044;-85
2022/01/09 08:43:48;;;;;;;2.97;1.30;;;;;;;;;;4998111;28;20031;-87
2022/01/09 08:46:15;;;;;;;3.95;1.33;;;;;;;;;;4980175;28;20034;-83
2022/01/09 08:48:41;;;;;;;6.20;1.45;;;;;;;;;;4999347;28;20034;-85
2022/01/09 08:51:07;;;;;;;6.93;1.30;;;;;;;;;;4980609;28;20057;-85
2022/01/09 08:53:35;;;;;;;5.18;1.10;;;;;;;;;;4997899;28;20604;-83
2022/01/09 08:56:01;;;;;;;3.70;1.23;;;;;;;;;;5006310;28;20149;-83
2022/01/09 08:58:26;;;;;;;3.78;1.27;;;;;;;;;;5012015;28;20029;-85
2022/01/09 09:00:51;;;;;;;7.82;1.67;;;;;;;;;;4983883;28;20037;-86
2022/01/09 09:03:17;;;;;;;10.52;1.67;;;;;;;;;;4998642;28;20053;-85
2022/01/09 09:05:42;;;;;;;4.32;1.10;;;;;;;;;;5012924;28;20022;-85
2022/01/09 09:08:08;;;;;;;13.75;2.03;;;;;;;;;;4981741;28;20030;-86
2022/01/09 09:10:33;;;;;;;5.07;1.40;;;;;;;;;;4980073;28;20049;-87
2022/01/09 09:12:58;;;;;;;2.70;1.13;;;;;;;;;;4997192;28;20046;-83
2022/01/09 09:15:24;;;;;;;3.25;1.05;;;;;;;;;;5005293;28;20026;-88
2022/01/09 09:17:49;;;;;;;6.25;1.52;;;;;;;;;;4996451;28;20032;-86
2022/01/09 09:20:15;;;;;;;4.43;1.27;;;;;;;;;;5017260;28;20032;-88
2022/01/09 09:22:40;;;;;;;7.82;1.85;;;;;;;;;;5000813;28;20032;-86
2022/01/09 09:25:06;;;;;;;8.57;1.65;;;;;;;;;;5010209;28;20022;-87
2022/01/09 09:27:32;;;;;;;6.78;1.85;;;;;;;;;;4988621;28;20050;-87
2022/01/09 09:30:02;;;;;;;2.53;1.13;;;;;;;;;;5007052;28;20090;-88
2022/01/09 09:32:28;;;;;;;5.60;1.70;;;;;;;;;;5004413;28;20473;-87
2022/01/09 09:34:53;;;;;;;3.40;1.52;;;;;;;;;;4997679;28;20134;-87
2022/01/09 09:37:20;;;;;;;4.40;1.73;;;;;;;;;;4998437;28;20046;-86
2022/01/09 09:39:46;;;;;;;3.05;1.20;;;;;;;;;;4997978;28;20059;-87
2022/01/09 09:42:12;;;;;;;3.50;1.33;;;;;;;;;;4997089;28;20510;-85
2022/01/09 09:44:37;;;;;;;3.90;1.60;;;;;;;;;;5002820;28;20025;-86
2022/01/09 09:47:04;;;;;;;5.30;1.10;;;;;;;;;;5008842;28;20527;-86
2022/01/09 09:49:29;;;;;;;6.85;1.25;;;;;;;;;;5017375;28;20030;-86
2022/01/09 09:51:54;;;;;;;7.00;1.48;;;;;;;;;;4999406;28;20021;-85
2022/01/09 09:54:20;;;;;;;5.57;1.20;;;;;;;;;;4998229;28;20034;-85
2022/01/09 09:56:45;;;;;;;5.28;1.48;;;;;;;;;;4980127;28;20032;-86
2022/01/09 09:59:11;;;;;;;5.25;1.63;;;;;;;;;;4997036;28;20030;-85
2022/01/09 10:01:36;;;;;;;6.82;1.27;;;;;;;;;;5004476;28;20022;-85
2022/01/09 10:04:05;;;;;;;5.07;2.25;;;;;;;;;;4998943;28;20033;-83
2022/01/09 10:06:41;;;;;;;5.82;1.83;;;;;;;;;;5007641;28;20089;-83
2022/01/09 10:09:09;;;;;;;4.43;1.73;;;;;;;;;;4998997;28;20027;-84
2022/01/09 10:11:49;;;;;;;7.63;2.25;;;;;;;;;;4982804;28;20062;-85
2022/01/09 10:14:20;;;;;;;5.80;1.30;;;;;;;;;;4999783;28;20032;-84
2022/01/09 10:17:09;;;;;;;3.63;1.23;;;;;;;;;;5007264;28;20044;-83
2022/01/09 10:19:47;;;;;;;4.03;1.48;;;;;;;;;;5016408;28;20096;-83
2022/01/09 10:22:22;;;;;;;3.42;1.20;;;;;;;;;;5017115;28;20026;-83
2022/01/09 10:24:48;;;;;;;4.90;1.38;;;;;;;;;;4995090;28;20057;-81
2022/01/09 10:27:29;;;;;;;5.40;1.90;;;;;;;;;;4992219;28;20030;-81
2022/01/09 10:29:55;;;;;;;6.50;2.13;;;;;;;;;;4990265;28;20488;-80
2022/01/09 10:32:24;;;;;;;5.75;1.27;;;;;;;;;;5011138;28;20298;-83
2022/01/09 10:35:09;;;;;;;6.80;1.75;;;;;;;;;;5004038;28;20037;-85
2022/01/09 10:37:35;;;;;;;3.95;0.98;;;;;;;;;;5019153;28;20022;-84
2022/01/09 10:40:01;;;;;;;2.28;1.20;;;;;;;;;;5021030;28;20084;-83
2022/01/09 10:42:27;;;;;;;3.03;1.15;;;;;;;;;;5018159;28;20109;-82
2022/01/09 10:44:53;;;;;;;1.65;1.13;;;;;;;;;;5016429;28;20093;-84
2022/01/09 10:47:18;;;;;;;2.50;0.95;;;;;;;;;;4999061;28;20112;-83
2022/01/09 10:49:49;;;;;;;1.95;0.88;;;;;;;;;;5002866;28;20030;-85
2022/01/09 10:52:27;;;;;;;3.85;1.45;;;;;;;;;;5002304;28;20047;-84
2022/01/09 10:54:55;;;;;;;2.50;0.90;;;;;;;;;;5004686;28;20042;-83
2022/01/09 10:57:24;;;;;;;6.57;1.45;;;;;;;;;;5018928;28;20072;-83
2022/01/09 10:59:50;;;;;;;9.13;1.10;;;;;;;;;;5018038;28;20038;-83
2022/01/09 11:02:16;;;;;;;1.05;0.90;;;;;;;;;;5019298;28;20048;-82
2022/01/09 11:04:43;;;;;;;4.38;1.35;;;;;;;;;;5026027;28;20076;-82
2022/01/09 11:07:10;;;;;;;3.05;1.25;;;;;;;;;;5016245;28;20093;-83
2022/01/09 11:09:37;;;;;;;4.68;1.42;;;;;;;;;;5011503;28;20018;-83
2022/01/09 11:12:08;;;;;;;4.60;1.35;;;;;;;;;;5023952;28;20021;-82
2022/01/09 11:14:39;;;;;;;6.88;1.70;;;;;;;;;;5016095;28;20038;-83
2022/01/09 11:17:06;;;;;;;4.93;1.00;;;;;;;;;;5013043;28;20081;-83
2022/01/09 11:19:33;;;;;;;2.85;1.63;;;;;;;;;;4986267;28;20690;-82
2022/01/09 11:22:01;;;;;;;3.35;1.33;;;;;;;;;;4980112;28;20058;-82
2022/01/09 11:24:39;;;;;;;3.65;1.25;;;;;;;;;;5004929;28;20022;-83
2022/01/09 11:27:18;;;;;;;3.30;1.52;;;;;;;;;;5006143;28;20030;-82
2022/01/09 11:30:00;;;;;;;6.68;1.73;;;;;;;;;;5000201;28;20033;-84
2022/01/09 11:32:52;;;;;;;1.90;1.02;;;;;;;;;;5010684;28;20027;-81
2022/01/09 11:38:26;;;;;;;3.03;1.20;;;;;;;;;;4993254;28;20033;-85
2022/01/09 11:40:52;;;;;;;5.50;1.88;;;;;;;;;;4995255;28;20030;-86
2022/01/09 11:58:09;;;;;;;3.20;1.30;;;;;;;;;;4928071;29;20111;-87
2022/01/09 12:04:36;;;;;;;5.28;1.40;;;;;;;;;;4849137;29;20069;-86
2022/01/09 12:07:56;;;;;;;6.78;1.50;;;;;;;;;;4859880;29;20098;-87
2022/01/09 12:11:25;;;;;;;3.15;1.45;;;;;;;;;;4844316;29;20080;-87
2022/01/09 12:13:51;;;;;;;2.88;1.15;;;;;;;;;;4900417;29;20044;-87
2022/01/09 12:16:50;;;;;;;2.58;1.27;;;;;;;;;;4928055;28;20169;-85
2022/01/09 12:19:53;;;;;;;3.60;1.02;;;;;;;;;;4984884;28;20034;-87
2022/01/09 12:22:38;;;;;;;2.67;0.98;;;;;;;;;;5000020;28;20423;-87
2022/01/09 12:25:09;;;;;;;4.63;1.02;;;;;;;;;;4981633;28;20038;-85
2022/01/09 12:27:43;;;;;;;8.85;1.40;;;;;;;;;;4991998;28;20036;-84
2022/01/09 12:30:30;;;;;;;3.03;1.20;;;;;;;;;;4980034;28;20766;-85
2022/01/09 12:32:56;;;;;;;10.57;1.80;;;;;;;;;;5004975;28;20030;-85
2022/01/09 12:35:22;;;;;;;2.67;1.17;;;;;;;;;;4979513;28;20074;-86
2022/01/09 12:37:52;;;;;;;4.93;1.33;;;;;;;;;;4979334;28;20054;-84
2022/01/09 12:40:19;;;;;;;3.50;1.17;;;;;;;;;;4998640;28;20022;-85
2022/01/09 12:42:46;;;;;;;3.15;1.40;;;;;;;;;;4980992;28;20053;-84
2022/01/09 12:45:18;;;;;;;5.22;1.58;;;;;;;;;;5006328;28;20029;-88
2022/01/09 12:47:43;;;;;;;5.80;1.50;;;;;;;;;;5016111;28;20018;-87
2022/01/09 12:50:09;;;;;;;2.60;0.90;;;;;;;;;;5000582;28;20038;-86
2022/01/09 12:52:34;;;;;;;3.58;1.42;;;;;;;;;;5016769;28;20026;-86
2022/01/09 12:55:12;;;;;;;5.25;1.75;;;;;;;;;;5016704;28;20053;-88
2022/01/09 12:57:55;;;;;;;2.15;1.40;;;;;;;;;;5014186;28;20163;-88
2022/01/09 13:00:28;;;;;;;3.65;1.60;;;;;;;;;;4984145;28;20029;-86
2022/01/09 13:02:55;;;;;;;5.22;1.95;;;;;;;;;;4979781;28;20062;-88
2022/01/09 13:05:25;;;;;;;2.25;1.00;;;;;;;;;;4997475;28;20117;-86
2022/01/09 13:08:00;;;;;;;4.82;1.35;;;;;;;;;;4997945;28;20022;-85
2022/01/09 13:10:33;;;;;;;2.72;1.77;;;;;;;;;;4981034;28;20491;-86
2022/01/09 13:13:04;;;;;;;0.93;0.80;;;;;;;;;;4981348;28;20042;-86
2022/01/09 13:15:37;;;;;;;1.88;0.88;;;;;;;;;;4982001;28;20031;-87
2022/01/09 13:18:04;;;;;;;1.80;0.98;;;;;;;;;;5000311;28;20547;-85
2022/01/09 13:20:30;;;;;;;1.48;1.10;;;;;;;;;;4993200;28;20041;-87
2022/01/09 13:23:04;;;;;;;2.97;1.33;;;;;;;;;;4996660;28;20022;-87
2022/01/09 13:25:29;;;;;;;5.38;1.77;;;;;;;;;;5009015;28;20078;-85
2022/01/09 13:27:55;;;;;;;4.68;1.50;;;;;;;;;;5001441;28;20488;-86
2022/01/09 13:30:31;;;;;;;9.02;1.50;;;;;;;;;;5003478;28;20025;-84
2022/01/09 13:33:15;;;;;;;4.63;1.70;;;;;;;;;;4985253;28;20042;-88
2022/01/09 13:36:30;;;;;;;5.07;1.33;;;;;;;;;;4980487;28;20038;-86
2022/01/09 13:39:13;;;;;;;3.35;1.17;;;;;;;;;;4980203;28;20385;-87
2022/01/09 13:41:47;;;;;;;9.73;1.90;;;;;;;;;;4979769;28;20103;-85
2022/01/09 13:44:25;;;;;;;4.85;1.33;;;;;;;;;;4995056;28;20026;-85
2022/01/09 13:47:07;;;;;;;3.13;1.38;;;;;;;;;;4980159;28;20030;-83
2022/01/09 13:50:07;;;;;;;2.60;1.35;;;;;;;;;;4997580;28;20042;-86
2022/01/09 13:53:42;;;;;;;4.45;1.42;;;;;;;;;;4985391;28;20369;-86
2022/01/09 13:56:17;;;;;;;4.85;2.00;;;;;;;;;;4998846;28;20042;-85
2022/01/09 13:58:42;;;;;;;3.97;2.20;;;;;;;;;;4984475;28;20120;-85
2022/01/09 14:01:08;;;;;;;3.22;1.50;;;;;;;;;;5016565;28;20037;-85
2022/01/09 14:03:34;;;;;;;5.07;1.30;;;;;;;;;;4994772;28;20101;-84
2022/01/09 14:06:00;;;;;;;6.97;1.42;;;;;;;;;;4981271;28;20034;-85
2022/01/09 14:08:36;;;;;;;5.88;1.80;;;;;;;;;;4996897;28;20038;-85
2022/01/09 14:11:06;;;;;;;1.25;0.95;;;;;;;;;;4988764;28;20022;-86
2022/01/09 14:13:40;;;;;;;4.30;1.50;;;;;;;;;;5016003;28;20174;-85
2022/01/09 14:16:11;;;;;;;2.83;1.33;;;;;;;;;;5004598;28;20383;-84
2022/01/09 14:18:38;;;;;;;2.28;0.90;;;;;;;;;;4985154;28;20025;-85
2022/01/09 14:21:14;;;;;;;5.85;1.20;;;;;;;;;;5015399;28;20026;-86
2022/01/09 14:23:43;;;;;;;8.48;1.65;;;;;;;;;;4989582;28;20023;-84
2022/01/09 14:26:23;;;;;;;5.88;1.70;;;;;;;;;;4979617;28;20041;-85
2022/01/09 14:28:50;;;;;;;4.35;1.33;;;;;;;;;;4980694;28;20391;-83
2022/01/09 14:31:18;;;;;;;5.55;1.42;;;;;;;;;;4976922;28;20026;-85
2022/01/09 14:33:47;;;;;;;2.03;0.90;;;;;;;;;;4986747;28;20022;-84
2022/01/09 14:36:15;;;;;;;2.95;1.05;;;;;;;;;;4979047;28;20373;-87
2022/01/09 14:38:50;;;;;;;3.47;1.27;;;;;;;;;;4979900;28;20026;-85
2022/01/09 14:41:16;;;;;;;2.13;0.90;;;;;;;;;;4979767;28;20443;-83
2022/01/09 14:43:42;;;;;;;2.38;1.10;;;;;;;;;;4978626;28;20030;-86
2022/01/09 14:46:08;;;;;;;2.60;0.95;;;;;;;;;;5007403;28;20026;-87
2022/01/09 14:48:36;;;;;;;1.67;1.20;;;;;;;;;;4998448;28;20018;-86
2022/01/09 14:51:06;;;;;;;2.38;1.00;;;;;;;;;;5016250;28;20026;-86
2022/01/09 14:53:31;;;;;;;2.20;1.30;;;;;;;;;;4998029;28;20101;-85
2022/01/09 14:55:57;;;;;;;5.65;1.60;;;;;;;;;;5002667;28;20058;-86
2022/01/09 14:58:24;;;;;;;2.53;0.98;;;;;;;;;;4985927;28;20081;-85
2022/01/09 15:00:51;;;;;;;1.27;0.98;;;;;;;;;;4977570;28;20026;-87
2022/01/09 15:03:20;;;;;;;2.92;1.10;;;;;;;;;;4996744;28;20032;-84
2022/01/09 15:12:45;;;;;;;2.25;1.27;;;;;;;;;;4991274;28;20066;-86
2022/01/09 15:15:17;;;;;;;1.95;0.60;;;;;;;;;;4986731;28;20033;-83
2022/01/09 15:17:43;;;;;;;2.08;1.00;;;;;;;;;;4995687;28;20057;-83